Latest Weather Observations for Point Stuart

IDD60901

Issued at 3:41 pm CST Tuesday 21 November 2017 (issued every 10 minutes, with the page automatically refreshed every 10 minutes)

About weather observations | Map of Darwin area stations | Latest observations for Darwin area | Other Formats
Station Details ID: 014254 Name: POINT STUART Lat: -12.24 Lon: 131.88 Height: 1.0 m
Data from the previous 72 hours. | See also: Recent months at Point Stuart
Date/Time
CST
Temp
°C
App
Temp
°C
Dew
Point
°C
Rel
Hum
%
Delta-T
°C
Wind Press
QNH
hPa
Press
MSL
hPa
Rain since
9am
mm
Dir  Spd
km/h
Gust
km/h
Spd
kts
Gust
kts
21/03:30pm 33.3 36.3 22.7 53 7.3 N 11 15 6 8 1004.8 - 0.0
21/03:00pm 34.3 37.3 22.7 50 8.0 N 11 20 6 11 1005.3 1005.3 0.0
21/02:30pm 34.7 38.3 23.7 52 7.7 NNE 11 17 6 9 1005.5 - 0.0
21/02:00pm 34.2 36.8 21.9 48 8.4 NNE 11 20 6 11 1005.8 - 0.0
21/01:30pm 33.2 35.5 21.4 50 8.0 NNE 11 17 6 9 1006.5 - 0.0
21/01:00pm 33.2 35.7 23.2 55 6.9 NNE 15 22 8 12 1007.1 - 0.0
21/12:30pm 33.5 35.3 23.2 54 7.1 NE 19 28 10 15 1007.7 - 0.0
21/12:00pm 33.4 36.3 22.5 52 7.5 NNE 11 20 6 11 1008.2 1008.2 0.0
21/11:30am 33.3 35.5 21.8 51 7.8 NNE 13 22 7 12 1008.7 - 0.0
21/11:00am 33.3 36.4 23.6 56 6.7 NE 13 22 7 12 1009.2 - 0.0
21/10:30am 32.6 37.0 24.4 62 5.7 NE 9 17 5 9 1009.3 - 0.0
21/10:00am 32.0 35.3 23.8 62 5.7 E 13 19 7 10 1009.3 - 0.0
21/09:30am 31.5 34.8 23.9 64 5.3 NNE 13 19 7 10 1009.2 - 0.0
21/09:00am 30.4 36.1 25.0 73 3.8 ENE 4 9 2 5 1009.1 1009.1 0.2
21/08:30am 29.3 34.2 25.3 79 2.8 ESE 9 11 5 6 1009.0 - 0.2
21/08:00am 29.6 35.1 25.6 79 2.8 E 7 11 4 6 1008.5 - 0.2
21/07:30am 29.4 36.4 25.8 81 2.6 CALM 0 6 0 3 1008.2 - 0.2
21/07:00am 27.5 34.6 26.6 95 0.6 N 2 6 1 3 1007.6 - 0.2
21/06:30am 25.6 31.0 25.1 97 0.3 N 6 6 3 3 1007.1 - 0.2
21/06:00am 25.4 31.5 24.5 95 0.6 CALM 0 6 0 3 1006.7 1006.7 0.2
21/05:30am 25.7 31.0 25.0 96 0.5 N 6 6 3 3 1006.4 - 0.2
21/05:00am 25.5 30.5 24.5 94 0.7 N 6 7 3 4 1006.2 - 0.2
21/04:30am 25.7 31.3 24.8 95 0.6 N 4 7 2 4 1006.1 - 0.2
21/04:00am 25.8 31.9 24.4 92 1.0 CALM 0 0 0 0 1006.2 - 0.2
21/03:30am 26.1 31.7 24.3 90 1.2 N 2 7 1 4 1006.4 - 0.2
21/03:00am 26.7 31.6 24.4 87 1.6 N 6 7 3 4 1006.7 1006.7 0.2
21/02:30am 27.4 33.2 24.5 84 2.0 N 2 7 1 4 1007.0 - 0.2
21/02:00am 27.5 32.6 24.7 85 1.9 N 6 9 3 5 1007.1 - 0.2
21/01:30am 27.7 32.4 24.3 82 2.4 N 7 11 4 6 1007.4 - 0.2
21/01:00am 28.0 33.1 24.0 79 2.8 N 4 9 2 5 1008.0 - 0.2
21/12:30am 28.4 33.3 24.6 80 2.6 N 7 11 4 6 1008.1 - 0.2
21/12:00am 28.9 34.0 25.5 82 2.4 N 9 15 5 8 1008.3 1008.3 0.2
 
Date/Time
CST
Temp
°C
App
Temp
°C
Dew
Point
°C
Rel
Hum
%
Delta-T
°C
Wind Press
QNH
hPa
Press
MSL
hPa
Rain since
9am
mm
Dir  Spd
km/h
Gust
km/h
Spd
kts
Gust
kts
20/11:30pm 29.1 34.3 25.7 82 2.4 N 9 15 5 8 1008.2 - 0.2
20/11:00pm 29.1 34.7 25.7 82 2.4 NNW 7 13 4 7 1008.1 - 0.2
20/10:30pm 29.2 34.5 25.8 82 2.4 N 9 17 5 9 1008.0 - 0.2
20/10:00pm 29.1 34.2 25.5 81 2.5 N 9 15 5 8 1008.2 - 0.2
20/09:30pm 29.2 33.9 25.0 78 2.9 N 9 17 5 9 1007.8 - 0.2
20/09:00pm 29.4 34.1 25.6 80 2.7 N 11 19 6 10 1007.5 1007.5 0.2
20/08:30pm 29.7 34.1 25.0 76 3.3 N 11 20 6 11 1007.2 - 0.2
20/08:00pm 30.1 33.8 24.5 72 3.9 N 13 22 7 12 1007.0 - 0.2
20/07:30pm 30.1 33.9 24.0 70 4.2 NNE 11 19 6 10 1006.8 - 0.2
20/07:00pm 30.3 34.7 24.4 70 4.1 NNE 9 17 5 9 1006.5 - 0.2
20/06:30pm 31.0 34.6 23.1 63 5.4 N 9 13 5 7 1006.1 - 0.2
20/06:00pm 31.7 34.9 22.4 58 6.4 N 9 19 5 10 1005.8 1005.8 0.2
20/05:30pm 32.6 36.2 23.0 57 6.6 N 9 19 5 10 1005.7 - 0.2
20/05:00pm 32.9 35.9 22.7 55 7.0 N 11 17 6 9 1005.7 - 0.2
20/04:30pm 33.1 36.9 23.4 56 6.7 N 9 15 5 8 1005.9 - 0.2
20/04:00pm 33.5 37.0 22.9 53 7.3 NE 9 17 5 9 1006.1 - 0.2
20/03:30pm 32.9 37.8 24.6 61 5.8 NNE 7 13 4 7 1006.2 - 0.2
20/03:00pm 32.6 36.3 24.6 62 5.6 NE 13 20 7 11 1006.5 1006.5 0.2
20/02:30pm 33.0 36.8 24.7 61 5.8 NNE 13 20 7 11 1006.7 - 0.2
20/02:00pm 33.5 37.3 24.7 60 6.2 NNE 13 22 7 12 1007.1 - 0.2
20/01:30pm 33.5 37.1 24.4 59 6.4 NNE 13 22 7 12 1007.4 - 0.2
20/01:00pm 32.2 35.8 24.3 63 5.5 NNE 13 20 7 11 1008.0 - 0.2
20/12:30pm 31.6 36.1 25.2 69 4.5 NE 11 19 6 10 1008.5 - 0.2
20/12:00pm 31.3 35.5 24.7 68 4.6 E 11 17 6 9 1008.7 1008.7 0.2
20/11:30am 30.9 35.2 25.5 73 3.8 E 13 17 7 9 1009.1 - 0.2
20/11:00am 31.0 35.4 25.6 73 3.8 ENE 13 19 7 10 1009.4 - 0.2
20/10:30am 31.3 36.7 26.6 76 3.4 E 11 17 6 9 1009.7 - 0.2
20/10:00am 29.7 34.5 26.3 82 2.4 ESE 13 19 7 10 1010.0 - 0.0
20/09:30am 29.2 33.7 25.8 82 2.4 SE 13 20 7 11 1010.0 - 0.0
20/09:00am 28.4 34.0 25.8 86 1.8 SE 7 11 4 6 1009.8 1009.8 4.0
20/08:30am 27.8 32.8 25.4 87 1.7 SSE 9 13 5 7 1009.8 - 4.0
20/08:00am 26.3 30.3 25.6 96 0.5 S 15 19 8 10 1009.6 - 4.0
20/07:30am 25.5 30.6 25.5 100 0.0 SSW 9 13 5 7 1009.4 - 4.0
20/07:00am 24.6 28.3 24.6 100 0.0 S 13 15 7 8 1009.1 - 4.0
20/06:30am 24.2 26.9 24.2 100 0.0 S 17 22 9 12 1008.8 - 4.0
20/06:00am 24.3 28.2 24.3 100 0.0 SSW 11 13 6 7 1008.3 1008.3 4.0
20/05:30am 24.1 27.9 24.1 100 0.0 SSE 11 13 6 7 1007.8 - 4.0
20/05:00am 24.1 28.3 24.1 100 0.0 S 9 13 5 7 1007.7 - 4.0
20/04:30am 24.1 28.3 24.1 100 0.0 SSE 9 13 5 7 1007.8 - 4.0
20/04:00am 24.2 27.7 24.2 100 0.0 SE 13 19 7 10 1007.7 - 4.0
20/03:30am 24.6 28.0 24.6 100 0.0 ESE 15 17 8 9 1007.3 - 4.0
20/03:00am 25.0 31.1 25.0 100 0.0 SE 2 9 1 5 1007.3 1007.3 4.0
20/02:30am 25.1 31.2 25.1 100 0.0 WNW 2 9 1 5 1007.2 - 4.0
20/02:00am 25.0 31.5 25.0 100 0.0 CALM 0 0 0 0 1007.4 - 4.0
20/01:30am 25.2 30.5 25.2 100 0.0 SW 7 9 4 5 1008.3 - 4.0
20/01:00am 25.2 30.1 25.2 100 0.0 S 9 11 5 6 1008.8 - 4.0
20/12:30am 25.3 29.9 25.3 100 0.0 SSW 11 13 6 7 1009.3 - 3.8
20/12:00am 25.1 30.3 25.1 100 0.0 W 7 9 4 5 1009.6 1009.6 3.2
 
Date/Time
CST
Temp
°C
App
Temp
°C
Dew
Point
°C
Rel
Hum
%
Delta-T
°C
Wind Press
QNH
hPa
Press
MSL
hPa
Rain since
9am
mm
Dir  Spd
km/h
Gust
km/h
Spd
kts
Gust
kts
19/11:30pm 25.3 30.2 25.3 100 0.0 WSW 9 13 5 7 1010.2 - 1.6
19/11:00pm 25.0 28.9 24.8 99 0.1 WNW 13 20 7 11 1010.4 - 1.6
19/10:30pm 24.9 28.6 23.9 94 0.7 NW 11 15 6 8 1011.2 - 0.0
19/10:00pm 25.3 26.7 23.5 90 1.2 S 22 28 12 15 1010.3 - 0.0
19/09:30pm 26.5 28.3 23.6 84 2.0 S 20 28 11 15 1009.9 - 0.0
19/09:00pm 29.6 36.6 25.8 80 2.7 CALM 0 7 0 4 1009.6 1009.6 0.0
19/08:30pm 29.6 36.0 24.9 76 3.3 CALM 0 0 0 0 1008.9 - 0.0
19/08:00pm 29.7 35.8 25.0 76 3.3 N 2 7 1 4 1008.3 - 0.0
19/07:30pm 29.8 35.1 25.3 77 3.2 NNW 7 11 4 6 1007.7 - 0.0
19/07:00pm 30.1 33.8 25.2 75 3.5 NW 15 19 8 10 1006.9 - 0.0
19/06:30pm 30.6 34.1 25.4 74 3.7 NW 17 22 9 12 1006.4 - 0.0
19/06:00pm 31.7 35.6 24.8 67 4.9 NW 13 19 7 10 1006.1 1006.1 0.0
19/05:30pm 32.9 36.3 25.2 64 5.5 NW 17 22 9 12 1006.0 - 0.0
19/05:00pm 32.7 35.8 23.6 58 6.3 NNW 13 24 7 13 1005.5 - 0.0
19/04:30pm 33.5 36.2 23.5 55 6.9 N 15 22 8 12 1005.7 - 0.0
19/04:00pm 33.4 37.0 23.7 56 6.8 N 11 22 6 12 1006.0 - 0.0
19/03:30pm 33.9 38.1 25.3 60 6.1 N 13 20 7 11 1006.2 - 0.0
19/03:00pm 33.1 37.0 24.8 61 5.9 N 13 20 7 11 1006.5 1006.5 0.0
19/02:30pm 33.5 37.8 24.9 60 6.1 N 11 20 6 11 1006.9 - 0.0
19/02:00pm 33.8 37.9 25.2 60 6.1 N 13 20 7 11 1007.3 - 0.0
19/01:30pm 33.2 37.6 25.7 64 5.3 NE 13 20 7 11 1007.8 - 0.0
19/01:00pm 33.3 37.1 25.3 63 5.7 NE 15 22 8 12 1008.3 - 0.0
19/12:30pm 32.2 35.8 25.0 65 5.1 NE 15 28 8 15 1008.7 - 0.0
19/12:00pm 32.3 35.7 25.9 69 4.6 E 19 26 10 14 1009.0 1009.0 0.0
19/11:30am 32.5 36.9 26.3 70 4.4 NE 15 24 8 13 1009.3 - 0.0
19/11:00am 32.1 36.7 27.1 75 3.6 ENE 17 26 9 14 1009.3 - 0.0
19/10:30am 31.3 35.2 26.1 74 3.7 ENE 17 24 9 13 1009.6 - 0.0
19/10:00am 30.9 35.3 26.2 76 3.4 E 15 20 8 11 1009.6 - 0.0
19/09:30am 30.5 34.7 26.0 77 3.2 E 15 20 8 11 1009.6 - 0.0
19/09:00am 30.1 34.7 26.0 78 2.9 E 13 20 7 11 1009.5 1009.5 2.6
19/08:30am 29.4 34.0 26.0 82 2.4 E 13 19 7 10 1009.2 - 2.6
19/08:00am 28.2 33.2 25.4 85 2.0 SE 9 13 5 7 1009.3 - 2.6
19/07:30am 26.9 31.8 24.7 88 1.5 SE 7 9 4 5 1008.8 - 2.6
19/07:00am 26.2 31.0 24.4 90 1.2 ESE 7 9 4 5 1008.4 - 2.6
19/06:30am 25.1 29.5 24.4 96 0.5 SE 9 11 5 6 1008.0 - 2.6
19/06:00am 24.9 29.0 24.0 95 0.6 ESE 9 11 5 6 1007.5 1007.5 2.6
19/05:30am 25.2 29.6 24.5 96 0.5 ESE 9 13 5 7 1007.6 - 2.6
19/05:00am 25.0 29.7 24.3 96 0.5 E 7 9 4 5 1007.5 - 2.6
19/04:30am 25.4 30.0 24.7 96 0.5 SSE 9 13 5 7 1007.5 - 2.6
19/04:00am 25.6 31.6 24.9 96 0.5 ESE 2 9 1 5 1007.4 - 2.6
19/03:30am 26.2 32.4 25.2 94 0.7 SE 2 7 1 4 1007.3 - 2.6
19/03:00am 26.6 31.7 25.6 94 0.7 SE 9 11 5 6 1007.7 1007.7 2.6
19/02:30am 27.1 32.2 25.5 91 1.1 SSE 9 15 5 8 1007.6 - 2.6
19/02:00am 27.9 32.6 24.9 84 2.1 ENE 9 13 5 7 1007.7 - 2.6
19/01:30am 28.2 33.1 25.2 84 2.1 NE 9 13 5 7 1007.9 - 2.6
19/01:00am 28.5 32.0 24.9 81 2.5 NE 15 20 8 11 1008.2 - 2.6
19/12:30am 28.4 32.6 25.4 84 2.1 NE 13 20 7 11 1008.5 - 2.6
19/12:00am 28.6 32.3 25.2 82 2.4 NE 15 24 8 13 1008.8 1008.8 2.6
 
Date/Time
CST
Temp
°C
App
Temp
°C
Dew
Point
°C
Rel
Hum
%
Delta-T
°C
Wind Press
QNH
hPa
Press
MSL
hPa
Rain since
9am
mm
Dir  Spd
km/h
Gust
km/h
Spd
kts
Gust
kts
18/11:30pm 28.7 31.4 24.7 79 2.8 NE 19 26 10 14 1008.7 - 2.6
18/11:00pm 28.8 32.7 25.4 82 2.4 NNE 15 24 8 13 1008.6 - 2.6
18/10:30pm 29.1 32.3 25.5 81 2.5 NE 19 28 10 15 1008.8 - 2.6
18/10:00pm 28.7 32.8 25.7 84 2.1 NE 15 24 8 13 1008.8 - 2.6
18/09:30pm 28.8 32.3 25.4 82 2.4 NNE 17 26 9 14 1008.4 - 2.6
18/09:00pm 28.6 32.3 25.2 82 2.4 NNE 15 24 8 13 1007.8 1007.8 2.6
18/08:30pm 28.1 32.3 25.3 85 2.0 NNE 13 20 7 11 1007.5 - 2.6
18/08:00pm 27.6 31.5 25.4 88 1.5 NNE 15 22 8 12 1007.1 - 2.4
18/07:30pm 26.3 32.3 26.1 99 0.1 N 6 11 3 6 1006.7 - 2.4
18/07:00pm 26.0 31.5 25.3 96 0.5 SW 6 9 3 5 1006.9 - 2.2
18/06:30pm 26.3 32.2 25.3 94 0.7 W 4 7 2 4 1006.7 - 1.6
18/06:00pm 26.3 31.0 24.9 92 1.0 W 9 13 5 7 1006.3 1006.3 1.6
18/05:30pm 26.7 32.1 25.5 93 0.8 W 7 15 4 8 1006.1 - 1.6
18/05:00pm 26.5 31.4 25.3 93 0.8 SSW 9 13 5 7 1006.3 - 1.6
18/04:31pm 26.6 26.9 25.2 92 1.0 SE 33 52 18 28 1006.6 - 0.8
18/04:30pm 26.7 27.0 25.7 94 0.7 SE 35 52 19 28 1006.6 - 0.8
18/04:22pm 25.7 26.1 23.7 89 1.4 ESE 28 50 15 27 1006.3 - 0.0
18/04:19pm 26.9 27.8 23.4 81 2.4 ESE 24 39 13 21 1006.2 - 0.0
18/04:00pm 32.3 34.9 23.3 59 6.2 NNE 15 24 8 13 1005.7 - 0.0

Latest Capital City Observations: Canberra | Sydney | Melbourne | Brisbane | Adelaide | Perth | Hobart | Darwin

Other Formats:

Comma delimited format used in spreadsheet applications
http://www.bom.gov.au/fwo/IDD60901/IDD60901.94127.axf

JavaScript Object Notation format (JSON) in row-major order
http://www.bom.gov.au/fwo/IDD60901/IDD60901.94127.json